Time;durP1;ratioP1;P1;durP2;ratioP2;P2;SDS_P1;SDS_P2;PMS_P1;PMS_P2;Temp;Humidity;BMP_temperature;BMP_pressure;BME280_temperature;BME280_humidity;BME280_pressure;Samples;Min_cycle;Max_cycle;Signal;HPM_P1;HPM_P2
2023/03/24 00:02:03;;;;;;;1.40;1.30;;;;;;;;;;5091461;28;20193;-59
2023/03/24 00:04:31;;;;;;;1.40;1.37;;;;;;;;;;5092570;28;20279;-59
2023/03/24 00:07:00;;;;;;;2.10;2.00;;;;;;;;;;5087785;28;20233;-60
2023/03/24 00:09:28;;;;;;;1.90;1.20;;;;;;;;;;5082622;28;20233;-59
2023/03/24 00:11:55;;;;;;;1.20;1.20;;;;;;;;;;5092759;28;20316;-60
2023/03/24 00:14:24;;;;;;;2.53;1.23;;;;;;;;;;5097436;28;20680;-60
2023/03/24 00:16:53;;;;;;;1.80;1.40;;;;;;;;;;5093475;28;20250;-60
2023/03/24 00:19:21;;;;;;;1.13;1.13;;;;;;;;;;5100968;28;20655;-60
2023/03/24 00:21:48;;;;;;;1.90;1.27;;;;;;;;;;5103450;28;20237;-60
2023/03/24 00:24:15;;;;;;;2.07;1.27;;;;;;;;;;5100063;28;20213;-60
2023/03/24 00:26:42;;;;;;;1.20;1.20;;;;;;;;;;5096678;28;20209;-60
2023/03/24 00:29:12;;;;;;;1.60;1.50;;;;;;;;;;5093693;28;20214;-60
2023/03/24 00:31:42;;;;;;;1.73;1.33;;;;;;;;;;5089592;28;20228;-60
2023/03/24 00:34:09;;;;;;;3.07;1.50;;;;;;;;;;5093600;28;20214;-59
2023/03/24 00:36:37;;;;;;;1.30;1.30;;;;;;;;;;5088551;28;20210;-59
2023/03/24 00:39:05;;;;;;;1.20;1.20;;;;;;;;;;5088187;28;20194;-59
2023/03/24 00:41:32;;;;;;;0.90;0.90;;;;;;;;;;5094925;28;20321;-61
2023/03/24 00:44:02;;;;;;;0.97;0.97;;;;;;;;;;5089498;28;20209;-59
2023/03/24 00:46:29;;;;;;;1.03;1.03;;;;;;;;;;5098752;28;20222;-60
2023/03/24 00:49:01;;;;;;;1.00;1.00;;;;;;;;;;5106832;28;20262;-61
2023/03/24 00:51:28;;;;;;;1.23;1.13;;;;;;;;;;5092181;28;20225;-59
2023/03/24 00:53:56;;;;;;;1.40;1.30;;;;;;;;;;5091115;28;20205;-59
2023/03/24 00:56:24;;;;;;;1.40;1.30;;;;;;;;;;5087035;28;20211;-59
2023/03/24 00:58:51;;;;;;;1.37;1.27;;;;;;;;;;5095341;28;20194;-59
2023/03/24 01:01:20;;;;;;;3.20;1.20;;;;;;;;;;5097716;28;20256;-59
2023/03/24 01:03:49;;;;;;;3.60;1.20;;;;;;;;;;5086958;28;20211;-59
2023/03/24 01:06:21;;;;;;;1.10;1.03;;;;;;;;;;5100902;28;20239;-59
2023/03/24 01:08:48;;;;;;;2.37;0.90;;;;;;;;;;5088317;28;20302;-59
2023/03/24 01:11:15;;;;;;;1.75;1.23;;;;;;;;;;5094527;28;20325;-59
2023/03/24 01:13:43;;;;;;;1.42;1.40;;;;;;;;;;5072554;28;20218;-59
2023/03/24 01:16:10;;;;;;;1.20;1.20;;;;;;;;;;5091439;28;20282;-59
2023/03/24 01:18:39;;;;;;;1.40;1.40;;;;;;;;;;5105096;28;20198;-60
2023/03/24 01:21:07;;;;;;;1.00;1.00;;;;;;;;;;5104034;28;20202;-60
2023/03/24 01:23:35;;;;;;;2.40;1.40;;;;;;;;;;5090128;28;20238;-60
2023/03/24 01:26:06;;;;;;;1.17;1.17;;;;;;;;;;5099213;28;20607;-61
2023/03/24 01:28:38;;;;;;;1.30;1.30;;;;;;;;;;5102618;28;20198;-60
2023/03/24 01:31:06;;;;;;;1.03;0.93;;;;;;;;;;5103728;28;20202;-60
2023/03/24 01:33:33;;;;;;;1.50;1.40;;;;;;;;;;5088678;28;20203;-59
2023/03/24 01:36:00;;;;;;;1.30;1.20;;;;;;;;;;5088795;28;20206;-60
2023/03/24 01:38:27;;;;;;;1.57;1.00;;;;;;;;;;5106817;28;20209;-59
2023/03/24 01:40:55;;;;;;;2.60;1.47;;;;;;;;;;5103377;28;20552;-59
2023/03/24 01:43:25;;;;;;;1.73;1.57;;;;;;;;;;5106000;28;20206;-59
2023/03/24 01:45:58;;;;;;;1.13;1.13;;;;;;;;;;5103757;28;20206;-59
2023/03/24 01:48:27;;;;;;;1.20;1.20;;;;;;;;;;5103361;28;20354;-59
2023/03/24 01:50:57;;;;;;;1.70;1.60;;;;;;;;;;5099017;28;20195;-59
2023/03/24 01:53:25;;;;;;;1.40;1.30;;;;;;;;;;5090430;28;20925;-59
2023/03/24 01:55:52;;;;;;;2.53;1.10;;;;;;;;;;5104181;28;20210;-60
2023/03/24 01:58:21;;;;;;;1.50;1.40;;;;;;;;;;5095836;28;20676;-59
2023/03/24 02:00:48;;;;;;;1.23;1.13;;;;;;;;;;5088423;28;20207;-58
2023/03/24 02:03:17;;;;;;;3.13;1.50;;;;;;;;;;5102431;28;20210;-59
2023/03/24 02:05:45;;;;;;;1.53;1.43;;;;;;;;;;5087822;28;20206;-59
2023/03/24 02:08:15;;;;;;;0.97;0.97;;;;;;;;;;5098741;28;20209;-59
2023/03/24 02:10:43;;;;;;;1.33;1.30;;;;;;;;;;5093763;28;20210;-59
2023/03/24 02:13:10;;;;;;;1.00;1.00;;;;;;;;;;5073889;28;20237;-59
2023/03/24 02:15:41;;;;;;;1.83;1.50;;;;;;;;;;5084716;28;20675;-59
2023/03/24 02:18:17;;;;;;;2.53;1.53;;;;;;;;;;5100815;28;20210;-59
2023/03/24 02:20:58;;;;;;;1.43;1.43;;;;;;;;;;5095607;28;20220;-59
2023/03/24 02:23:42;;;;;;;1.40;1.30;;;;;;;;;;5097105;28;20237;-59
2023/03/24 02:26:20;;;;;;;1.43;1.43;;;;;;;;;;5109477;28;20214;-58
2023/03/24 02:28:51;;;;;;;1.60;1.30;;;;;;;;;;5096206;28;20250;-59
2023/03/24 02:31:29;;;;;;;2.13;2.03;;;;;;;;;;5107381;28;20258;-60
2023/03/24 02:34:21;;;;;;;2.00;1.90;;;;;;;;;;5089697;28;20252;-59
2023/03/24 02:36:58;;;;;;;1.80;1.70;;;;;;;;;;5086077;28;20194;-60
2023/03/24 02:39:33;;;;;;;2.20;2.00;;;;;;;;;;5103194;28;20225;-60
2023/03/24 02:42:05;;;;;;;1.80;1.70;;;;;;;;;;5097720;28;20986;-60
2023/03/24 02:44:36;;;;;;;2.63;2.13;;;;;;;;;;5089521;28;20451;-60
2023/03/24 02:47:05;;;;;;;1.50;1.50;;;;;;;;;;5098411;28;20631;-60
2023/03/24 02:49:37;;;;;;;2.20;2.10;;;;;;;;;;5102826;28;20202;-60
2023/03/24 02:52:05;;;;;;;2.20;2.00;;;;;;;;;;5095364;28;20221;-60
2023/03/24 02:54:41;;;;;;;2.07;1.93;;;;;;;;;;5089169;28;20248;-59
2023/03/24 02:57:10;;;;;;;3.77;2.10;;;;;;;;;;5089549;28;20201;-60
2023/03/24 03:02:45;;;;;;;2.30;2.10;;;;;;;;;;5082680;28;20254;-60
2023/03/24 03:05:15;;;;;;;2.60;2.10;;;;;;;;;;5102879;28;20202;-59
2023/03/24 03:07:43;;;;;;;2.40;2.23;;;;;;;;;;5097133;28;20224;-60
2023/03/24 03:10:15;;;;;;;2.50;2.30;;;;;;;;;;5104707;28;20210;-59
2023/03/24 03:12:45;;;;;;;2.20;2.10;;;;;;;;;;5100522;28;20306;-60
2023/03/24 03:15:14;;;;;;;2.83;1.80;;;;;;;;;;5092454;28;20217;-59
2023/03/24 03:17:46;;;;;;;2.53;2.17;;;;;;;;;;5097303;28;20208;-59
2023/03/24 03:20:18;;;;;;;2.30;2.20;;;;;;;;;;5106584;28;20213;-60
2023/03/24 03:22:48;;;;;;;2.00;1.90;;;;;;;;;;5091023;28;20268;-59
2023/03/24 03:25:19;;;;;;;3.73;2.27;;;;;;;;;;5088802;28;20213;-60
2023/03/24 03:27:46;;;;;;;1.90;1.80;;;;;;;;;;5098040;28;20206;-59
2023/03/24 03:30:18;;;;;;;2.90;2.40;;;;;;;;;;5093419;28;20217;-59
2023/03/24 03:32:52;;;;;;;3.50;2.90;;;;;;;;;;5096728;28;20257;-59
2023/03/24 03:35:22;;;;;;;2.40;2.30;;;;;;;;;;5088827;28;20259;-60
2023/03/24 03:37:53;;;;;;;3.63;2.20;;;;;;;;;;5088720;28;20695;-60
2023/03/24 03:40:22;;;;;;;2.40;2.30;;;;;;;;;;5095576;28;20206;-59
2023/03/24 03:42:50;;;;;;;2.27;2.03;;;;;;;;;;5091732;28;20677;-60
2023/03/24 03:45:17;;;;;;;2.97;2.17;;;;;;;;;;5091257;28;20310;-58
2023/03/24 03:47:44;;;;;;;1.90;1.80;;;;;;;;;;5105109;28;20209;-59
2023/03/24 03:50:12;;;;;;;1.70;1.70;;;;;;;;;;5108299;28;20198;-59
2023/03/24 03:52:40;;;;;;;2.77;1.90;;;;;;;;;;5092578;28;20696;-59
2023/03/24 03:55:08;;;;;;;1.63;1.58;;;;;;;;;;5100237;28;20214;-59
2023/03/24 03:57:36;;;;;;;1.57;1.47;;;;;;;;;;5094227;28;20213;-60
2023/03/24 04:00:06;;;;;;;2.00;1.90;;;;;;;;;;5107908;28;20206;-59
2023/03/24 04:02:41;;;;;;;2.10;2.00;;;;;;;;;;5074786;28;20202;-59
2023/03/24 04:05:24;;;;;;;2.03;1.83;;;;;;;;;;5087965;28;20296;-60
2023/03/24 04:08:02;;;;;;;1.60;1.50;;;;;;;;;;5098344;28;20603;-59
2023/03/24 04:10:39;;;;;;;1.50;1.50;;;;;;;;;;5089746;28;20210;-59
2023/03/24 04:13:15;;;;;;;2.58;1.77;;;;;;;;;;5096399;28;20225;-59
2023/03/24 04:15:46;;;;;;;2.03;1.70;;;;;;;;;;5074162;28;20291;-59
2023/03/24 04:18:19;;;;;;;2.00;1.87;;;;;;;;;;5106079;28;20613;-60
2023/03/24 04:20:48;;;;;;;2.92;1.88;;;;;;;;;;5105839;28;20203;-59
2023/03/24 04:23:21;;;;;;;1.92;1.83;;;;;;;;;;5093309;28;20381;-59
2023/03/24 04:25:55;;;;;;;4.53;1.83;;;;;;;;;;5102675;28;20254;-61
2023/03/24 04:28:27;;;;;;;1.70;1.60;;;;;;;;;;5088465;28;20210;-59
2023/03/24 04:31:00;;;;;;;4.47;1.63;;;;;;;;;;5089715;28;20209;-59
2023/03/24 04:33:32;;;;;;;1.63;1.52;;;;;;;;;;5088479;28;20238;-59
2023/03/24 04:36:05;;;;;;;2.10;1.90;;;;;;;;;;5090436;28;20201;-59
2023/03/24 04:38:34;;;;;;;1.65;1.55;;;;;;;;;;5088355;28;20214;-59
2023/03/24 04:41:04;;;;;;;2.25;2.13;;;;;;;;;;5089513;28;20285;-60
2023/03/24 04:43:35;;;;;;;2.00;1.90;;;;;;;;;;5098002;28;20317;-59
2023/03/24 04:46:02;;;;;;;1.52;1.52;;;;;;;;;;5096459;28;20214;-59
2023/03/24 04:48:30;;;;;;;1.85;1.73;;;;;;;;;;5099591;28;20209;-59
2023/03/24 04:50:57;;;;;;;1.90;1.80;;;;;;;;;;5096591;28;20229;-59
2023/03/24 04:53:25;;;;;;;1.88;1.88;;;;;;;;;;5102554;28;20218;-59
2023/03/24 04:56:07;;;;;;;2.60;1.70;;;;;;;;;;5097660;28;20210;-59
2023/03/24 04:58:35;;;;;;;1.80;1.70;;;;;;;;;;5080021;28;20682;-59
2023/03/24 05:01:04;;;;;;;3.13;1.95;;;;;;;;;;5087547;28;20755;-59
2023/03/24 05:03:36;;;;;;;1.70;1.60;;;;;;;;;;5105504;28;20288;-60
2023/03/24 05:06:04;;;;;;;1.60;1.60;;;;;;;;;;5094217;28;20203;-60
2023/03/24 05:08:32;;;;;;;2.55;2.22;;;;;;;;;;5090944;28;20209;-60
2023/03/24 05:10:59;;;;;;;1.63;1.63;;;;;;;;;;5096402;28;20563;-59
2023/03/24 05:13:26;;;;;;;2.53;2.13;;;;;;;;;;5109721;28;20225;-61
2023/03/24 05:15:55;;;;;;;1.60;1.60;;;;;;;;;;5110120;28;20214;-59
2023/03/24 05:18:22;;;;;;;1.60;1.52;;;;;;;;;;5083210;28;20280;-59
2023/03/24 05:20:49;;;;;;;2.47;2.23;;;;;;;;;;5070949;28;20254;-59
2023/03/24 05:23:16;;;;;;;1.87;1.80;;;;;;;;;;5081253;28;20241;-59
2023/03/24 05:25:43;;;;;;;2.10;2.00;;;;;;;;;;5090915;28;20564;-59
2023/03/24 05:28:10;;;;;;;1.73;1.73;;;;;;;;;;5091276;28;20233;-59
2023/03/24 05:30:37;;;;;;;1.93;1.80;;;;;;;;;;5105701;28;20237;-59
2023/03/24 05:33:05;;;;;;;2.17;1.98;;;;;;;;;;5095111;28;20304;-61
2023/03/24 05:35:32;;;;;;;1.75;1.73;;;;;;;;;;5096348;28;20209;-59
2023/03/24 05:38:00;;;;;;;1.47;1.40;;;;;;;;;;5106430;28;20634;-58
2023/03/24 05:40:27;;;;;;;1.50;1.40;;;;;;;;;;5108896;28;20667;-58
2023/03/24 05:42:54;;;;;;;2.30;1.77;;;;;;;;;;5109008;28;20202;-59
2023/03/24 05:45:21;;;;;;;1.65;1.55;;;;;;;;;;5102572;28;20216;-59
2023/03/24 05:47:50;;;;;;;1.50;1.50;;;;;;;;;;5110107;28;20206;-59
2023/03/24 05:50:18;;;;;;;1.35;1.35;;;;;;;;;;5101450;28;20256;-59
2023/03/24 05:52:45;;;;;;;1.20;1.10;;;;;;;;;;5093144;28;20251;-59
2023/03/24 05:55:14;;;;;;;2.20;1.10;;;;;;;;;;5092805;28;20215;-59
2023/03/24 05:57:42;;;;;;;1.57;1.03;;;;;;;;;;5098914;28;20554;-58
2023/03/24 06:00:16;;;;;;;1.13;1.00;;;;;;;;;;5095805;28;20329;-61
2023/03/24 06:02:43;;;;;;;1.07;0.70;;;;;;;;;;5106796;28;20698;-59
2023/03/24 06:05:10;;;;;;;0.90;0.90;;;;;;;;;;5095749;28;20206;-58
2023/03/24 06:07:41;;;;;;;0.95;0.95;;;;;;;;;;5103869;28;20205;-59
2023/03/24 06:10:10;;;;;;;0.80;0.80;;;;;;;;;;5109936;28;20292;-59
2023/03/24 06:12:37;;;;;;;1.00;0.90;;;;;;;;;;5097774;28;20285;-61
2023/03/24 06:15:04;;;;;;;0.85;0.80;;;;;;;;;;5089480;28;20203;-59
2023/03/24 06:17:31;;;;;;;0.80;0.80;;;;;;;;;;5102655;28;20234;-59
2023/03/24 06:20:04;;;;;;;0.93;0.93;;;;;;;;;;5076246;28;20211;-59
2023/03/24 06:22:32;;;;;;;0.70;0.70;;;;;;;;;;5081417;28;20237;-59
2023/03/24 06:25:01;;;;;;;0.65;0.65;;;;;;;;;;5108444;28;20305;-59
2023/03/24 06:27:28;;;;;;;0.90;0.90;;;;;;;;;;5109501;28;20206;-59
2023/03/24 06:29:56;;;;;;;0.80;0.80;;;;;;;;;;5109790;28;20225;-59
2023/03/24 06:32:23;;;;;;;1.10;1.10;;;;;;;;;;5106110;28;20202;-59
2023/03/24 06:34:50;;;;;;;0.80;0.80;;;;;;;;;;5091666;28;20226;-59
2023/03/24 06:37:18;;;;;;;2.42;1.50;;;;;;;;;;5084317;28;20635;-61
2023/03/24 06:39:45;;;;;;;1.10;1.10;;;;;;;;;;5109807;28;20209;-61
2023/03/24 06:42:14;;;;;;;1.10;1.10;;;;;;;;;;5099685;28;20215;-59
2023/03/24 06:44:42;;;;;;;1.17;1.17;;;;;;;;;;5100165;28;20209;-58
2023/03/24 06:47:09;;;;;;;1.60;1.50;;;;;;;;;;5106234;28;20206;-59
2023/03/24 06:49:36;;;;;;;1.33;1.33;;;;;;;;;;5097089;28;20618;-59
2023/03/24 06:52:03;;;;;;;1.88;1.20;;;;;;;;;;5109643;28;20216;-59
2023/03/24 06:54:30;;;;;;;2.03;1.60;;;;;;;;;;5107015;28;20703;-59
2023/03/24 06:56:57;;;;;;;1.27;1.27;;;;;;;;;;5108026;28;20210;-59
2023/03/24 06:59:27;;;;;;;1.58;1.50;;;;;;;;;;5096625;28;20221;-59
2023/03/24 07:01:54;;;;;;;1.30;1.30;;;;;;;;;;5109450;28;20304;-62
2023/03/24 07:04:24;;;;;;;1.23;1.23;;;;;;;;;;5103231;28;20194;-59
2023/03/24 07:06:51;;;;;;;1.30;1.30;;;;;;;;;;5089225;28;20729;-59
2023/03/24 07:09:18;;;;;;;1.13;1.13;;;;;;;;;;5093884;28;20206;-59
2023/03/24 07:11:46;;;;;;;1.57;1.40;;;;;;;;;;5109321;28;20948;-60
2023/03/24 07:14:13;;;;;;;1.23;1.23;;;;;;;;;;5094082;28;20321;-59
2023/03/24 07:16:41;;;;;;;1.25;1.25;;;;;;;;;;5088296;28;20210;-60
2023/03/24 07:19:08;;;;;;;1.10;1.10;;;;;;;;;;5101792;28;20217;-60
2023/03/24 07:21:35;;;;;;;1.00;1.00;;;;;;;;;;5105762;28;20228;-59
2023/03/24 07:24:02;;;;;;;1.00;1.00;;;;;;;;;;5100712;28;20227;-59
2023/03/24 07:26:29;;;;;;;1.15;1.15;;;;;;;;;;5097064;28;20221;-59
2023/03/24 07:28:56;;;;;;;1.00;1.00;;;;;;;;;;5089522;28;20582;-60
2023/03/24 07:31:23;;;;;;;1.08;1.05;;;;;;;;;;5088557;28;20218;-60
2023/03/24 07:33:52;;;;;;;0.90;0.90;;;;;;;;;;5096027;28;20225;-60
2023/03/24 07:36:19;;;;;;;1.17;1.17;;;;;;;;;;5093751;28;20209;-59
2023/03/24 07:38:46;;;;;;;1.10;1.10;;;;;;;;;;5087994;28;20202;-60
2023/03/24 07:41:13;;;;;;;1.10;1.10;;;;;;;;;;5088478;28;20218;-60
2023/03/24 07:43:40;;;;;;;1.45;1.35;;;;;;;;;;5095173;28;20697;-60
2023/03/24 07:46:07;;;;;;;1.40;1.30;;;;;;;;;;5088218;28;20238;-60
2023/03/24 07:48:34;;;;;;;1.00;1.00;;;;;;;;;;5092350;28;20218;-60
2023/03/24 07:51:02;;;;;;;1.20;1.20;;;;;;;;;;5086381;28;20205;-60
2023/03/24 07:53:31;;;;;;;1.05;1.05;;;;;;;;;;5082408;28;20240;-59
2023/03/24 07:55:58;;;;;;;1.00;1.00;;;;;;;;;;5094140;28;20631;-60
2023/03/24 07:58:25;;;;;;;1.10;1.10;;;;;;;;;;5088007;28;20214;-59
2023/03/24 08:00:52;;;;;;;1.00;1.00;;;;;;;;;;5067893;28;20219;-59
2023/03/24 08:03:26;;;;;;;0.60;0.60;;;;;;;;;;5067575;28;20665;-59
2023/03/24 08:05:53;;;;;;;1.40;0.95;;;;;;;;;;5067499;28;20249;-59
2023/03/24 08:08:22;;;;;;;0.93;0.93;;;;;;;;;;5073422;28;20660;-60
2023/03/24 08:10:49;;;;;;;1.10;1.10;;;;;;;;;;5106092;28;20231;-60
2023/03/24 08:13:17;;;;;;;1.80;1.13;;;;;;;;;;5087047;28;20256;-60
2023/03/24 08:15:44;;;;;;;1.17;1.17;;;;;;;;;;5090838;28;20266;-60
2023/03/24 08:18:11;;;;;;;1.20;1.20;;;;;;;;;;5093516;28;20198;-59
2023/03/24 08:20:38;;;;;;;1.40;1.30;;;;;;;;;;5107802;28;20708;-60
2023/03/24 08:23:07;;;;;;;0.90;0.90;;;;;;;;;;5087689;28;20268;-59
2023/03/24 08:25:36;;;;;;;1.20;1.20;;;;;;;;;;5096336;28;20208;-59
2023/03/24 08:28:03;;;;;;;1.20;0.80;;;;;;;;;;5101366;28;20203;-59
2023/03/24 08:30:30;;;;;;;1.08;1.08;;;;;;;;;;5104908;28;20217;-58
2023/03/24 08:32:59;;;;;;;1.00;1.00;;;;;;;;;;5103396;28;20209;-58
2023/03/24 08:35:27;;;;;;;0.90;0.90;;;;;;;;;;5107804;28;20341;-59
2023/03/24 08:37:54;;;;;;;1.20;1.00;;;;;;;;;;5101029;28;20198;-59
2023/03/24 08:40:22;;;;;;;1.00;1.00;;;;;;;;;;5091039;28;20317;-59
2023/03/24 08:42:52;;;;;;;0.80;0.80;;;;;;;;;;5088542;28;20202;-59
2023/03/24 08:45:20;;;;;;;1.30;1.23;;;;;;;;;;5088569;28;20653;-59
2023/03/24 08:47:48;;;;;;;0.80;0.77;;;;;;;;;;5087117;28;20217;-59
2023/03/24 08:50:15;;;;;;;1.00;1.00;;;;;;;;;;5089686;28;20680;-61
2023/03/24 08:52:46;;;;;;;1.23;0.95;;;;;;;;;;5087322;28;20687;-58
2023/03/24 08:55:13;;;;;;;1.20;1.20;;;;;;;;;;5096579;28;20225;-59
2023/03/24 08:57:41;;;;;;;0.82;0.82;;;;;;;;;;5106996;28;20255;-58
2023/03/24 09:00:14;;;;;;;1.00;1.00;;;;;;;;;;5092179;28;20215;-59
2023/03/24 09:02:41;;;;;;;1.00;1.00;;;;;;;;;;5089783;28;20671;-59
2023/03/24 09:05:08;;;;;;;0.60;0.60;;;;;;;;;;5087533;28;20218;-59
2023/03/24 09:07:35;;;;;;;1.20;1.20;;;;;;;;;;5102369;28;20205;-60
2023/03/24 09:10:03;;;;;;;0.80;0.80;;;;;;;;;;5105893;28;20271;-58
2023/03/24 09:12:30;;;;;;;1.48;0.80;;;;;;;;;;5100435;28;20301;-58
2023/03/24 09:14:57;;;;;;;0.90;0.90;;;;;;;;;;5092486;28;20222;-58
2023/03/24 09:17:26;;;;;;;0.40;0.40;;;;;;;;;;5096053;28;20205;-58
2023/03/24 09:19:54;;;;;;;0.38;0.38;;;;;;;;;;5100879;28;20217;-58
2023/03/24 09:22:21;;;;;;;1.33;0.40;;;;;;;;;;5107471;28;20248;-58
2023/03/24 09:24:48;;;;;;;2.50;0.30;;;;;;;;;;5105698;28;20214;-59
2023/03/24 09:27:16;;;;;;;0.50;0.50;;;;;;;;;;5107592;28;20209;-59
2023/03/24 09:29:43;;;;;;;2.08;0.50;;;;;;;;;;5104161;28;20338;-59
2023/03/24 09:32:10;;;;;;;0.50;0.50;;;;;;;;;;5101467;28;20583;-58
2023/03/24 09:34:38;;;;;;;1.30;0.60;;;;;;;;;;5098046;28;20214;-59
2023/03/24 09:37:06;;;;;;;0.35;0.35;;;;;;;;;;5096874;28;20201;-58
2023/03/24 09:39:35;;;;;;;0.57;0.43;;;;;;;;;;5096702;28;20213;-59
2023/03/24 09:42:04;;;;;;;0.40;0.38;;;;;;;;;;5086643;28;20210;-58
2023/03/24 09:44:34;;;;;;;0.68;0.30;;;;;;;;;;5089409;28;20671;-59
2023/03/24 09:47:04;;;;;;;0.25;0.25;;;;;;;;;;5088034;28;20567;-58
2023/03/24 09:49:35;;;;;;;0.20;0.20;;;;;;;;;;5084595;28;20206;-59
2023/03/24 09:52:05;;;;;;;0.30;0.30;;;;;;;;;;5086476;28;20226;-59
2023/03/24 09:54:37;;;;;;;0.40;0.40;;;;;;;;;;5102779;28;20232;-59
2023/03/24 09:57:05;;;;;;;0.20;0.20;;;;;;;;;;5098041;28;20197;-59
2023/03/24 09:59:34;;;;;;;0.20;0.20;;;;;;;;;;5069429;28;20673;-59
2023/03/24 10:02:02;;;;;;;0.45;0.20;;;;;;;;;;5086673;28;20691;-59
2023/03/24 10:04:30;;;;;;;0.10;0.10;;;;;;;;;;5089444;28;20198;-59
2023/03/24 10:07:00;;;;;;;0.30;0.30;;;;;;;;;;5102504;28;20202;-58
2023/03/24 10:09:29;;;;;;;0.20;0.20;;;;;;;;;;5089476;28;20214;-58
2023/03/24 10:12:02;;;;;;;0.30;0.30;;;;;;;;;;5093792;28;20225;-59
2023/03/24 10:14:40;;;;;;;2.25;0.10;;;;;;;;;;5085862;28;20218;-58
2023/03/24 10:17:14;;;;;;;0.10;0.10;;;;;;;;;;5075678;28;20207;-58
2023/03/24 10:19:46;;;;;;;1.65;0.20;;;;;;;;;;5082237;28;20221;-59
2023/03/24 10:22:16;;;;;;;0.95;0.10;;;;;;;;;;5081148;28;20246;-59
2023/03/24 10:24:47;;;;;;;0.10;0.10;;;;;;;;;;5088893;28;20828;-58
2023/03/24 10:27:17;;;;;;;0.20;0.20;;;;;;;;;;5077088;28;20202;-58
2023/03/24 10:29:45;;;;;;;0.50;0.20;;;;;;;;;;5098660;28;20217;-58
2023/03/24 10:32:15;;;;;;;0.20;0.20;;;;;;;;;;5088351;28;20840;-58
2023/03/24 10:34:43;;;;;;;0.30;0.30;;;;;;;;;;5094776;28;20229;-58
2023/03/24 10:37:11;;;;;;;0.10;0.10;;;;;;;;;;5085513;28;20316;-58
2023/03/24 10:39:39;;;;;;;0.20;0.20;;;;;;;;;;5093322;28;20214;-61
2023/03/24 10:42:14;;;;;;;0.20;0.20;;;;;;;;;;5086861;28;20211;-60
2023/03/24 10:44:42;;;;;;;0.17;0.17;;;;;;;;;;5082995;28;20198;-61
2023/03/24 10:47:11;;;;;;;0.20;0.20;;;;;;;;;;5091856;28;20684;-62
2023/03/24 10:49:38;;;;;;;0.13;0.13;;;;;;;;;;5081825;28;20218;-60
2023/03/24 10:52:10;;;;;;;0.70;0.30;;;;;;;;;;5089123;28;20214;-63
2023/03/24 10:54:37;;;;;;;0.10;0.10;;;;;;;;;;5084399;28;20230;-60
2023/03/24 10:57:05;;;;;;;6.18;0.30;;;;;;;;;;5091661;28;20214;-60
2023/03/24 10:59:36;;;;;;;0.20;0.20;;;;;;;;;;5090866;28;20292;-60
2023/03/24 11:02:06;;;;;;;0.40;0.40;;;;;;;;;;5095310;28;20578;-60
2023/03/24 11:04:33;;;;;;;0.20;0.20;;;;;;;;;;5095126;28;20212;-60
2023/03/24 11:07:05;;;;;;;0.13;0.13;;;;;;;;;;5095147;28;20582;-60
2023/03/24 11:09:39;;;;;;;0.52;0.20;;;;;;;;;;5076383;28;20831;-59
2023/03/24 11:12:20;;;;;;;0.90;0.30;;;;;;;;;;5095520;28;20608;-62
2023/03/24 11:14:48;;;;;;;0.20;0.20;;;;;;;;;;5082054;28;20237;-60
2023/03/24 11:17:16;;;;;;;0.10;0.10;;;;;;;;;;5098294;28;20217;-60
2023/03/24 11:19:51;;;;;;;0.20;0.20;;;;;;;;;;5086162;28;20217;-62
2023/03/24 11:22:18;;;;;;;0.43;0.17;;;;;;;;;;5083415;28;20250;-60
2023/03/24 11:24:48;;;;;;;0.10;0.08;;;;;;;;;;5088714;28;20233;-60
2023/03/24 11:27:17;;;;;;;0.22;0.22;;;;;;;;;;5088035;28;20607;-59
2023/03/24 11:29:46;;;;;;;0.10;0.10;;;;;;;;;;5104578;28;20802;-59
2023/03/24 11:32:16;;;;;;;0.30;0.30;;;;;;;;;;5092847;28;20233;-61
2023/03/24 11:34:46;;;;;;;0.10;0.10;;;;;;;;;;5087592;28;20241;-60
2023/03/24 11:37:14;;;;;;;0.65;0.40;;;;;;;;;;5088164;28;20214;-60
2023/03/24 11:39:43;;;;;;;0.43;0.38;;;;;;;;;;5089149;28;20368;-60
2023/03/24 11:42:17;;;;;;;0.20;0.20;;;;;;;;;;5090605;28;20726;-58
2023/03/24 11:44:48;;;;;;;0.20;0.20;;;;;;;;;;5099563;28;20232;-59
2023/03/24 11:47:22;;;;;;;0.65;0.20;;;;;;;;;;5089020;28;20210;-60
2023/03/24 11:49:52;;;;;;;0.22;0.20;;;;;;;;;;5100786;28;20209;-59
2023/03/24 11:52:22;;;;;;;2.40;0.52;;;;;;;;;;5096637;28;20202;-61
2023/03/24 11:54:49;;;;;;;0.77;0.35;;;;;;;;;;5089027;28;20226;-59
2023/03/24 11:57:19;;;;;;;2.88;0.50;;;;;;;;;;5100229;28;20222;-61
2023/03/24 11:59:49;;;;;;;0.30;0.20;;;;;;;;;;5085820;28;20276;-62
2023/03/24 12:02:23;;;;;;;1.33;0.40;;;;;;;;;;5088940;28;20296;-61
2023/03/24 12:04:59;;;;;;;1.65;0.50;;;;;;;;;;5096992;28;20197;-62
2023/03/24 12:07:39;;;;;;;0.47;0.20;;;;;;;;;;5092133;28;20214;-60
2023/03/24 12:10:14;;;;;;;1.30;0.63;;;;;;;;;;5088379;28;20206;-61
2023/03/24 12:12:45;;;;;;;1.15;0.20;;;;;;;;;;5098717;28;20546;-62
2023/03/24 12:15:27;;;;;;;0.28;0.28;;;;;;;;;;5096231;28;20221;-64
2023/03/24 12:17:58;;;;;;;1.83;0.35;;;;;;;;;;5101839;28;20661;-62
2023/03/24 12:20:27;;;;;;;1.45;0.45;;;;;;;;;;5086730;28;20205;-60
2023/03/24 12:23:00;;;;;;;0.93;0.30;;;;;;;;;;5085546;28;20658;-60
2023/03/24 12:25:34;;;;;;;1.10;0.25;;;;;;;;;;5089032;28;20301;-62
2023/03/24 12:28:07;;;;;;;0.80;0.20;;;;;;;;;;5088287;28;20231;-61
2023/03/24 12:30:38;;;;;;;0.57;0.40;;;;;;;;;;5089888;28;20569;-62
2023/03/24 12:33:20;;;;;;;1.77;0.47;;;;;;;;;;5095933;28;21015;-61
2023/03/24 12:35:51;;;;;;;1.90;0.50;;;;;;;;;;5092524;28;20229;-61
2023/03/24 12:38:26;;;;;;;3.00;0.20;;;;;;;;;;5079600;28;20337;-60
2023/03/24 12:41:04;;;;;;;0.43;0.40;;;;;;;;;;5078674;28;20672;-61
2023/03/24 12:43:35;;;;;;;2.35;0.52;;;;;;;;;;5079348;28;20293;-61
2023/03/24 12:46:06;;;;;;;1.75;0.30;;;;;;;;;;5081380;28;20199;-61
2023/03/24 12:48:48;;;;;;;0.45;0.40;;;;;;;;;;5089758;28;20209;-63
2023/03/24 12:51:23;;;;;;;0.50;0.30;;;;;;;;;;5070067;28;20206;-62
2023/03/24 12:53:55;;;;;;;1.25;0.43;;;;;;;;;;5083218;28;20198;-62
2023/03/24 12:56:24;;;;;;;0.63;0.40;;;;;;;;;;5078001;28;20238;-61
2023/03/24 12:58:54;;;;;;;1.10;0.35;;;;;;;;;;5082395;28;20202;-61
2023/03/24 13:01:25;;;;;;;1.50;0.50;;;;;;;;;;5085646;28;20270;-61
2023/03/24 13:03:55;;;;;;;0.15;0.10;;;;;;;;;;5085938;28;20859;-62
2023/03/24 13:06:24;;;;;;;1.27;0.40;;;;;;;;;;5091251;28;20636;-62
2023/03/24 13:09:03;;;;;;;1.95;0.40;;;;;;;;;;5086059;28;20687;-62
2023/03/24 13:11:35;;;;;;;0.77;0.38;;;;;;;;;;5086317;28;20206;-61
2023/03/24 13:14:04;;;;;;;0.70;0.30;;;;;;;;;;5085958;28;20226;-62
2023/03/24 13:16:34;;;;;;;0.57;0.30;;;;;;;;;;5091221;28;20237;-61
2023/03/24 13:19:02;;;;;;;1.58;0.30;;;;;;;;;;5087275;28;20206;-61
2023/03/24 13:21:33;;;;;;;0.32;0.30;;;;;;;;;;5082191;28;20229;-62
2023/03/24 13:24:02;;;;;;;0.45;0.45;;;;;;;;;;5080366;28;20210;-62
2023/03/24 13:26:38;;;;;;;0.30;0.30;;;;;;;;;;5090202;28;20653;-61
2023/03/24 13:29:09;;;;;;;1.75;0.60;;;;;;;;;;5083573;28;20202;-63
2023/03/24 13:31:38;;;;;;;0.65;0.40;;;;;;;;;;5095553;28;20212;-61
2023/03/24 13:34:10;;;;;;;0.30;0.30;;;;;;;;;;5086132;28;20201;-62
2023/03/24 13:36:43;;;;;;;2.20;0.35;;;;;;;;;;5092594;28;20229;-62
2023/03/24 13:39:13;;;;;;;0.38;0.38;;;;;;;;;;5091664;28;20210;-63
2023/03/24 13:41:40;;;;;;;1.23;0.50;;;;;;;;;;5099445;28;20197;-62
2023/03/24 13:44:08;;;;;;;0.40;0.38;;;;;;;;;;5092301;28;20221;-64
2023/03/24 13:46:37;;;;;;;2.05;0.30;;;;;;;;;;5089124;28;20210;-63
2023/03/24 13:49:06;;;;;;;0.50;0.40;;;;;;;;;;5092695;28;20677;-63
2023/03/24 13:51:36;;;;;;;0.40;0.40;;;;;;;;;;5088805;28;20206;-61
2023/03/24 13:54:05;;;;;;;1.08;0.40;;;;;;;;;;5089816;28;20747;-63
2023/03/24 13:56:34;;;;;;;1.55;0.40;;;;;;;;;;5090041;28;20230;-62
2023/03/24 13:59:09;;;;;;;0.47;0.30;;;;;;;;;;5095022;28;20236;-63
2023/03/24 14:01:37;;;;;;;1.17;0.60;;;;;;;;;;5091383;28;21418;-63
2023/03/24 14:04:22;;;;;;;0.40;0.40;;;;;;;;;;5092601;28;20712;-63
2023/03/24 14:06:51;;;;;;;0.60;0.55;;;;;;;;;;5094183;28;20201;-63
2023/03/24 14:09:20;;;;;;;1.45;0.45;;;;;;;;;;5094155;28;20218;-70
2023/03/24 14:12:05;;;;;;;0.82;0.35;;;;;;;;;;5095523;28;20213;-62
2023/03/24 14:14:34;;;;;;;0.40;0.40;;;;;;;;;;5095262;28;20206;-61
2023/03/24 14:17:14;;;;;;;0.38;0.38;;;;;;;;;;5089937;28;20233;-63
2023/03/24 14:19:42;;;;;;;0.20;0.20;;;;;;;;;;5085984;28;20599;-64
2023/03/24 14:22:14;;;;;;;2.60;0.50;;;;;;;;;;5097276;28;20245;-63
2023/03/24 14:24:41;;;;;;;0.30;0.30;;;;;;;;;;5096971;28;20202;-62
2023/03/24 14:27:22;;;;;;;0.75;0.30;;;;;;;;;;5098634;28;20202;-61
2023/03/24 14:29:51;;;;;;;0.20;0.20;;;;;;;;;;5088972;28;20211;-61
2023/03/24 14:32:21;;;;;;;1.10;0.30;;;;;;;;;;5088228;28;20599;-62
2023/03/24 14:34:56;;;;;;;0.40;0.35;;;;;;;;;;5089074;28;20831;-61
2023/03/24 14:37:26;;;;;;;0.30;0.30;;;;;;;;;;5089452;28;21010;-61
2023/03/24 14:39:56;;;;;;;0.30;0.30;;;;;;;;;;5083240;28;20242;-62
2023/03/24 14:42:43;;;;;;;0.30;0.30;;;;;;;;;;5101230;28;20310;-61
2023/03/24 14:45:25;;;;;;;0.70;0.40;;;;;;;;;;5087778;28;20206;-59
2023/03/24 14:47:57;;;;;;;0.35;0.20;;;;;;;;;;5106020;28;20257;-62
2023/03/24 14:50:26;;;;;;;0.13;0.13;;;;;;;;;;5081487;28;20207;-61
2023/03/24 14:52:55;;;;;;;0.20;0.20;;;;;;;;;;5099820;28;20771;-61
2023/03/24 14:55:22;;;;;;;0.80;0.30;;;;;;;;;;5090090;28;20294;-59
2023/03/24 14:57:53;;;;;;;0.65;0.30;;;;;;;;;;5091243;28;20218;-61
2023/03/24 15:00:22;;;;;;;0.73;0.30;;;;;;;;;;5094838;28;20210;-62
2023/03/24 15:02:50;;;;;;;1.17;0.57;;;;;;;;;;5088425;28;20596;-61